Time;durP1;ratioP1;P1;durP2;ratioP2;P2;SDS_P1;SDS_P2;PMS_P1;PMS_P2;Temp;Humidity;BMP_temperature;BMP_pressure;BME280_temperature;BME280_humidity;BME280_pressure;Samples;Min_cycle;Max_cycle;Signal;HPM_P1;HPM_P2
2021/01/11 00:02:11;;;;;;;119.00;48.78;;;;;;;;;;5051377;28;20490;-63
2021/01/11 00:04:37;;;;;;;112.88;48.33;;;;;;;;;;5051609;28;20483;-64
2021/01/11 00:07:03;;;;;;;114.15;51.20;;;;;;;;;;5051254;28;20513;-63
2021/01/11 00:09:29;;;;;;;111.50;47.67;;;;;;;;;;5051551;28;20507;-63
2021/01/11 00:11:58;;;;;;;119.35;50.95;;;;;;;;;;5051425;28;20045;-64
2021/01/11 00:14:24;;;;;;;120.30;50.92;;;;;;;;;;5051577;28;20057;-63
2021/01/11 00:16:51;;;;;;;102.65;46.60;;;;;;;;;;5051360;28;20099;-63
2021/01/11 00:19:17;;;;;;;105.35;46.42;;;;;;;;;;5057392;28;20043;-63
2021/01/11 00:21:47;;;;;;;100.97;46.42;;;;;;;;;;5057502;28;20044;-63
2021/01/11 00:24:13;;;;;;;107.30;50.05;;;;;;;;;;5054931;28;20040;-63
2021/01/11 00:26:39;;;;;;;100.43;47.60;;;;;;;;;;5065874;22;20059;-62
2021/01/11 00:29:05;;;;;;;100.22;48.75;;;;;;;;;;5012049;28;20122;-62
2021/01/11 00:31:31;;;;;;;100.88;48.08;;;;;;;;;;5011544;28;20510;-65
2021/01/11 00:33:57;;;;;;;100.03;45.40;;;;;;;;;;5011684;28;20085;-65
2021/01/11 00:36:23;;;;;;;110.20;48.20;;;;;;;;;;5012620;28;20451;-65
2021/01/11 00:38:49;;;;;;;102.93;46.80;;;;;;;;;;4994452;28;20042;-65
2021/01/11 00:41:24;;;;;;;99.22;46.95;;;;;;;;;;5011626;28;20069;-65
2021/01/11 00:43:50;;;;;;;94.28;45.92;;;;;;;;;;5011571;28;20124;-65
2021/01/11 00:46:20;;;;;;;101.43;45.55;;;;;;;;;;5020374;28;20128;-65
2021/01/11 00:48:46;;;;;;;94.68;46.35;;;;;;;;;;5034801;28;20044;-65
2021/01/11 00:51:13;;;;;;;96.68;45.08;;;;;;;;;;5034822;28;20045;-65
2021/01/11 00:53:39;;;;;;;102.93;45.28;;;;;;;;;;5034809;28;20128;-65
2021/01/11 00:56:05;;;;;;;97.45;44.42;;;;;;;;;;5034415;28;20071;-65
2021/01/11 00:58:31;;;;;;;107.88;46.15;;;;;;;;;;5034584;28;20033;-65
2021/01/11 01:00:57;;;;;;;103.50;44.42;;;;;;;;;;5034409;28;20045;-65
2021/01/11 01:03:23;;;;;;;102.82;45.47;;;;;;;;;;5034416;28;20037;-65
2021/01/11 01:05:50;;;;;;;105.07;45.45;;;;;;;;;;5034530;28;20430;-65
2021/01/11 01:08:16;;;;;;;91.60;42.17;;;;;;;;;;5034027;28;20069;-65
2021/01/11 01:10:42;;;;;;;92.85;44.45;;;;;;;;;;5034348;28;20041;-65
2021/01/11 01:13:08;;;;;;;90.85;42.35;;;;;;;;;;5034325;28;20121;-65
2021/01/11 01:15:34;;;;;;;104.68;44.88;;;;;;;;;;5034201;28;20502;-65
2021/01/11 01:18:00;;;;;;;104.70;42.75;;;;;;;;;;5033759;28;20050;-65
2021/01/11 01:20:26;;;;;;;83.80;39.97;;;;;;;;;;5034206;28;20043;-65
2021/01/11 01:22:52;;;;;;;89.38;40.85;;;;;;;;;;5033882;28;20050;-65
2021/01/11 01:25:18;;;;;;;84.15;39.88;;;;;;;;;;5034197;28;20412;-65
2021/01/11 01:27:44;;;;;;;90.53;38.42;;;;;;;;;;5033777;28;20110;-65
2021/01/11 01:30:11;;;;;;;91.35;39.67;;;;;;;;;;5033989;28;20049;-65
2021/01/11 01:32:37;;;;;;;85.82;39.15;;;;;;;;;;5033840;28;20072;-65
2021/01/11 01:35:03;;;;;;;78.90;38.60;;;;;;;;;;5034161;28;20053;-65
2021/01/11 01:37:29;;;;;;;74.40;40.08;;;;;;;;;;5033762;28;20076;-65
2021/01/11 01:39:56;;;;;;;81.28;38.85;;;;;;;;;;5033834;28;20038;-65
2021/01/11 01:42:22;;;;;;;83.63;40.53;;;;;;;;;;5033417;28;20053;-65
2021/01/11 01:44:48;;;;;;;78.40;37.95;;;;;;;;;;5033724;28;20095;-65
2021/01/11 01:47:14;;;;;;;78.20;37.95;;;;;;;;;;5033693;28;20041;-65
2021/01/11 01:49:40;;;;;;;79.25;38.45;;;;;;;;;;5016327;28;20042;-66
2021/01/11 01:52:06;;;;;;;82.10;39.95;;;;;;;;;;5015904;28;20041;-66
2021/01/11 01:54:32;;;;;;;90.28;40.08;;;;;;;;;;5016013;28;20041;-65
2021/01/11 01:56:58;;;;;;;88.95;40.75;;;;;;;;;;5033242;28;20118;-66
2021/01/11 01:59:25;;;;;;;93.53;40.08;;;;;;;;;;5033414;28;20072;-66
2021/01/11 02:01:54;;;;;;;88.50;42.92;;;;;;;;;;5033521;28;20098;-66
2021/01/11 02:04:21;;;;;;;92.63;42.20;;;;;;;;;;5033132;28;20076;-66
2021/01/11 02:06:47;;;;;;;88.30;41.35;;;;;;;;;;5033223;28;20099;-66
2021/01/11 02:09:15;;;;;;;98.82;43.20;;;;;;;;;;5032990;28;20037;-65
2021/01/11 02:11:45;;;;;;;91.22;42.88;;;;;;;;;;5015642;28;20045;-66
2021/01/11 02:14:11;;;;;;;96.80;43.70;;;;;;;;;;5033173;28;20045;-66
2021/01/11 02:16:42;;;;;;;93.05;42.95;;;;;;;;;;5032902;28;20087;-66
2021/01/11 02:19:15;;;;;;;92.55;42.53;;;;;;;;;;5015482;28;20052;-66
2021/01/11 02:21:51;;;;;;;94.10;40.70;;;;;;;;;;5032707;28;20041;-66
2021/01/11 02:24:36;;;;;;;89.45;42.17;;;;;;;;;;5015450;28;20051;-65
2021/01/11 02:27:02;;;;;;;95.75;43.75;;;;;;;;;;5032804;28;20530;-65
2021/01/11 02:29:32;;;;;;;88.65;39.05;;;;;;;;;;5032743;28;20039;-65
2021/01/11 02:31:58;;;;;;;90.25;42.53;;;;;;;;;;5015265;28;20044;-65
2021/01/11 02:34:24;;;;;;;85.13;43.20;;;;;;;;;;5015344;28;20037;-65
2021/01/11 02:36:51;;;;;;;91.03;42.15;;;;;;;;;;5032483;28;20046;-65
2021/01/11 02:39:17;;;;;;;93.97;44.17;;;;;;;;;;5032730;28;20037;-66
2021/01/11 02:41:43;;;;;;;92.00;42.45;;;;;;;;;;5032602;28;20116;-65
2021/01/11 02:44:09;;;;;;;84.63;42.10;;;;;;;;;;5032580;28;20046;-66
2021/01/11 02:46:35;;;;;;;89.05;43.65;;;;;;;;;;5032418;28;20038;-65
2021/01/11 02:49:03;;;;;;;89.82;44.13;;;;;;;;;;5032536;28;20040;-65
2021/01/11 02:51:42;;;;;;;72.80;40.05;;;;;;;;;;5014834;28;20482;-65
2021/01/11 02:54:23;;;;;;;81.60;39.38;;;;;;;;;;5032454;28;20491;-66
2021/01/11 02:56:49;;;;;;;90.75;42.42;;;;;;;;;;5014747;28;20132;-65
2021/01/11 02:59:19;;;;;;;76.47;42.63;;;;;;;;;;5014756;28;20034;-66
2021/01/11 03:01:55;;;;;;;80.85;42.45;;;;;;;;;;5032215;28;20038;-65
2021/01/11 03:04:22;;;;;;;81.28;41.38;;;;;;;;;;5014798;28;20045;-66
2021/01/11 03:06:58;;;;;;;80.32;42.80;;;;;;;;;;5032079;28;20503;-65
2021/01/11 03:09:24;;;;;;;81.35;39.67;;;;;;;;;;5031589;28;21429;-65
2021/01/11 03:11:50;;;;;;;81.50;42.33;;;;;;;;;;5014564;28;20495;-65
2021/01/11 03:14:16;;;;;;;79.03;41.13;;;;;;;;;;5032139;28;20049;-65
2021/01/11 03:16:42;;;;;;;83.70;42.67;;;;;;;;;;5031885;28;20033;-65
2021/01/11 03:19:08;;;;;;;78.45;39.42;;;;;;;;;;5031936;28;20044;-65
2021/01/11 03:21:35;;;;;;;74.75;41.83;;;;;;;;;;5030688;28;20120;-65
2021/01/11 03:24:01;;;;;;;72.47;40.33;;;;;;;;;;5031463;28;20045;-66
2021/01/11 03:26:27;;;;;;;76.88;40.47;;;;;;;;;;5031897;28;20039;-66
2021/01/11 03:28:53;;;;;;;79.88;40.33;;;;;;;;;;5032071;28;20047;-66
2021/01/11 03:31:20;;;;;;;72.88;39.75;;;;;;;;;;5031732;28;20037;-66
2021/01/11 03:33:46;;;;;;;72.55;39.25;;;;;;;;;;5032111;28;20046;-65
2021/01/11 03:36:12;;;;;;;79.20;41.92;;;;;;;;;;5031797;28;20083;-66
2021/01/11 03:38:39;;;;;;;73.70;39.30;;;;;;;;;;5031917;28;20037;-66
2021/01/11 03:41:05;;;;;;;72.07;40.33;;;;;;;;;;5031636;28;20083;-66
2021/01/11 03:43:31;;;;;;;72.55;40.63;;;;;;;;;;5031813;28;20041;-67
2021/01/11 03:45:57;;;;;;;77.88;40.92;;;;;;;;;;5031878;28;20120;-65
2021/01/11 03:48:23;;;;;;;80.03;42.45;;;;;;;;;;5031820;28;20040;-65
2021/01/11 03:50:50;;;;;;;76.50;40.20;;;;;;;;;;5031475;28;20034;-65
2021/01/11 03:53:16;;;;;;;78.57;42.40;;;;;;;;;;5031804;28;20175;-65
2021/01/11 03:55:42;;;;;;;77.78;41.92;;;;;;;;;;5031822;28;20124;-65
2021/01/11 03:58:08;;;;;;;79.70;41.28;;;;;;;;;;5031461;28;20041;-65
2021/01/11 04:00:35;;;;;;;79.93;42.65;;;;;;;;;;5031679;28;20037;-65
2021/01/11 04:03:02;;;;;;;78.55;41.70;;;;;;;;;;5031395;28;20145;-65
2021/01/11 04:05:28;;;;;;;91.97;45.63;;;;;;;;;;5031737;28;20099;-65
2021/01/11 04:07:55;;;;;;;86.32;43.70;;;;;;;;;;5031499;28;20399;-65
2021/01/11 04:10:21;;;;;;;89.15;44.75;;;;;;;;;;5031583;28;20048;-65
2021/01/11 04:12:47;;;;;;;78.18;43.67;;;;;;;;;;5031241;28;20041;-65
2021/01/11 04:15:13;;;;;;;94.72;44.85;;;;;;;;;;5031640;28;20120;-65
2021/01/11 04:17:39;;;;;;;92.60;44.70;;;;;;;;;;5031359;28;20037;-65
2021/01/11 04:20:06;;;;;;;89.40;43.25;;;;;;;;;;5031618;28;20042;-65
2021/01/11 04:22:32;;;;;;;85.07;41.38;;;;;;;;;;5034793;28;20044;-65
2021/01/11 04:24:58;;;;;;;84.28;43.00;;;;;;;;;;5035236;28;20037;-65
2021/01/11 04:27:24;;;;;;;87.53;42.90;;;;;;;;;;5034832;28;20037;-65
2021/01/11 04:29:50;;;;;;;97.38;45.42;;;;;;;;;;5035170;28;20044;-65
2021/01/11 04:32:16;;;;;;;93.70;45.50;;;;;;;;;;5034900;28;20049;-65
2021/01/11 04:34:42;;;;;;;95.93;47.65;;;;;;;;;;5035066;28;20037;-65
2021/01/11 04:37:08;;;;;;;88.68;45.53;;;;;;;;;;5017402;28;20045;-66
2021/01/11 04:39:34;;;;;;;90.55;43.70;;;;;;;;;;5035112;28;20542;-66
2021/01/11 04:42:05;;;;;;;93.00;46.47;;;;;;;;;;5034814;28;20042;-66
2021/01/11 04:44:31;;;;;;;101.22;49.33;;;;;;;;;;5017266;28;20388;-66
2021/01/11 04:46:57;;;;;;;91.65;45.63;;;;;;;;;;5034543;28;20088;-66
2021/01/11 04:49:23;;;;;;;96.53;49.90;;;;;;;;;;5017525;28;20115;-66
2021/01/11 04:51:49;;;;;;;93.38;46.72;;;;;;;;;;5034791;28;20038;-66
2021/01/11 04:54:18;;;;;;;92.75;46.95;;;;;;;;;;5017041;28;20044;-66
2021/01/11 04:56:44;;;;;;;95.22;46.63;;;;;;;;;;5016933;28;20120;-65
2021/01/11 04:59:10;;;;;;;91.82;46.10;;;;;;;;;;5017282;28;20443;-65
2021/01/11 05:01:36;;;;;;;97.95;46.88;;;;;;;;;;5016765;28;20045;-66
2021/01/11 05:04:02;;;;;;;90.65;47.42;;;;;;;;;;5034600;28;20046;-65
2021/01/11 05:06:29;;;;;;;86.05;43.88;;;;;;;;;;5034443;28;20115;-66
2021/01/11 05:09:07;;;;;;;86.60;45.13;;;;;;;;;;5034517;28;20510;-66
2021/01/11 05:11:34;;;;;;;87.88;47.08;;;;;;;;;;5034592;28;20045;-66
2021/01/11 05:14:00;;;;;;;91.55;47.17;;;;;;;;;;5034339;28;20068;-65
2021/01/11 05:16:26;;;;;;;99.88;48.08;;;;;;;;;;5034220;28;20042;-65
2021/01/11 05:18:57;;;;;;;102.95;48.22;;;;;;;;;;5034395;28;20037;-65
2021/01/11 05:21:39;;;;;;;94.18;45.83;;;;;;;;;;5034275;28;20046;-66
2021/01/11 05:24:07;;;;;;;104.40;50.92;;;;;;;;;;5034059;28;20419;-65
2021/01/11 05:26:39;;;;;;;96.90;47.38;;;;;;;;;;5034097;28;20067;-66
2021/01/11 05:29:17;;;;;;;94.68;44.50;;;;;;;;;;5034160;28;20120;-65
2021/01/11 05:31:53;;;;;;;101.07;46.88;;;;;;;;;;5033648;28;20124;-66
2021/01/11 05:34:19;;;;;;;104.40;47.47;;;;;;;;;;5034018;28;20069;-64
2021/01/11 05:36:46;;;;;;;105.03;51.10;;;;;;;;;;5033927;28;20052;-64
2021/01/11 05:39:13;;;;;;;92.72;48.08;;;;;;;;;;5033653;28;20057;-64
2021/01/11 05:41:42;;;;;;;100.82;47.45;;;;;;;;;;5033838;28;20047;-64
2021/01/11 05:44:14;;;;;;;98.93;47.80;;;;;;;;;;5033536;28;20064;-64
2021/01/11 05:46:40;;;;;;;;;;;;;;;;;;5033741;28;20132;-64
2021/01/11 05:49:10;;;;;;;101.97;47.20;;;;;;;;;;5033672;28;20607;-64
2021/01/11 05:51:37;;;;;;;99.03;51.17;;;;;;;;;;5033403;28;20041;-64
2021/01/11 05:54:03;;;;;;;94.38;49.10;;;;;;;;;;5033336;28;20518;-64
2021/01/11 05:56:49;;;;;;;113.45;51.03;;;;;;;;;;5033392;28;20037;-65
2021/01/11 05:59:15;;;;;;;104.22;50.40;;;;;;;;;;5033445;28;20091;-65
2021/01/11 06:01:41;;;;;;;108.28;52.53;;;;;;;;;;5033233;28;20049;-65
2021/01/11 06:04:07;;;;;;;110.47;51.30;;;;;;;;;;5033390;28;20446;-65
2021/01/11 06:06:34;;;;;;;114.68;52.10;;;;;;;;;;5033076;28;20046;-65
2021/01/11 06:09:00;;;;;;;109.47;51.17;;;;;;;;;;5033248;28;20474;-65
2021/01/11 06:11:26;;;;;;;115.55;55.28;;;;;;;;;;5033086;28;20041;-65
2021/01/11 06:13:53;;;;;;;107.45;53.00;;;;;;;;;;5033177;28;20407;-65
2021/01/11 06:16:19;;;;;;;118.75;54.88;;;;;;;;;;5033185;28;20045;-65
2021/01/11 06:18:48;;;;;;;128.52;55.55;;;;;;;;;;5032792;28;20144;-65
2021/01/11 06:21:14;;;;;;;125.28;57.17;;;;;;;;;;5033070;28;20041;-65
2021/01/11 06:23:40;;;;;;;125.82;55.65;;;;;;;;;;5032989;28;20048;-65
2021/01/11 06:26:25;;;;;;;134.93;58.70;;;;;;;;;;5032801;28;20052;-65
2021/01/11 06:28:51;;;;;;;121.55;54.88;;;;;;;;;;5033059;28;20038;-66
2021/01/11 06:31:17;;;;;;;135.30;58.70;;;;;;;;;;5033057;28;20061;-66
2021/01/11 06:33:43;;;;;;;129.57;56.83;;;;;;;;;;5033179;28;20048;-66
2021/01/11 06:36:18;;;;;;;135.57;57.20;;;;;;;;;;5033005;28;20080;-66
2021/01/11 06:38:44;;;;;;;135.93;57.38;;;;;;;;;;5033010;28;20046;-66
2021/01/11 06:41:10;;;;;;;143.45;57.42;;;;;;;;;;5015426;28;20248;-65
2021/01/11 06:43:44;;;;;;;126.25;56.17;;;;;;;;;;5032255;28;20488;-65
2021/01/11 06:46:12;;;;;;;133.38;57.17;;;;;;;;;;5032789;28;20045;-65
2021/01/11 06:48:40;;;;;;;133.77;58.38;;;;;;;;;;5014972;28;20510;-66
2021/01/11 06:51:06;;;;;;;136.77;58.88;;;;;;;;;;5032555;28;20681;-66
2021/01/11 06:53:32;;;;;;;122.65;54.67;;;;;;;;;;5032930;28;20046;-65
2021/01/11 06:56:08;;;;;;;130.15;54.15;;;;;;;;;;5033068;28;20047;-65
2021/01/11 06:58:35;;;;;;;131.18;55.17;;;;;;;;;;5032413;28;20514;-65
2021/01/11 07:01:02;;;;;;;136.80;55.92;;;;;;;;;;5032686;28;20448;-65
2021/01/11 07:03:46;;;;;;;123.15;52.95;;;;;;;;;;5032091;28;20091;-65
2021/01/11 07:06:43;;;;;;;123.55;55.38;;;;;;;;;;5029639;28;20038;-65
2021/01/11 07:09:13;;;;;;;127.25;55.88;;;;;;;;;;5018614;28;20111;-65
2021/01/11 07:11:39;;;;;;;122.35;52.38;;;;;;;;;;5031558;28;20037;-66
2021/01/11 07:14:05;;;;;;;143.13;56.60;;;;;;;;;;5032697;28;20041;-66
2021/01/11 07:16:38;;;;;;;135.45;54.92;;;;;;;;;;5014849;28;20033;-66
2021/01/11 07:19:04;;;;;;;129.18;56.90;;;;;;;;;;5032335;28;20033;-66
2021/01/11 07:21:30;;;;;;;134.15;57.22;;;;;;;;;;5032320;28;20045;-66
2021/01/11 07:23:56;;;;;;;135.45;56.08;;;;;;;;;;5031947;28;20073;-64
2021/01/11 07:26:26;;;;;;;133.93;55.95;;;;;;;;;;5031818;28;20119;-64
2021/01/11 07:28:52;;;;;;;134.27;54.22;;;;;;;;;;5024332;28;20053;-64
2021/01/11 07:31:22;;;;;;;130.82;52.70;;;;;;;;;;5012144;28;20042;-64
2021/01/11 07:33:51;;;;;;;126.68;51.45;;;;;;;;;;5012238;28;20034;-64
2021/01/11 07:36:18;;;;;;;125.15;54.45;;;;;;;;;;5012121;28;20070;-64
2021/01/11 07:38:44;;;;;;;133.90;54.35;;;;;;;;;;5014011;28;20419;-64
2021/01/11 07:41:10;;;;;;;131.98;55.92;;;;;;;;;;5031684;28;20103;-64
2021/01/11 07:43:37;;;;;;;145.82;55.72;;;;;;;;;;5031697;28;20502;-64
2021/01/11 07:46:03;;;;;;;114.75;52.90;;;;;;;;;;5031369;28;20496;-64
2021/01/11 07:48:30;;;;;;;133.80;53.80;;;;;;;;;;5031719;28;20039;-64
2021/01/11 07:51:08;;;;;;;125.43;56.60;;;;;;;;;;5031414;28;20042;-64
2021/01/11 07:53:38;;;;;;;131.60;53.47;;;;;;;;;;5014230;28;20061;-64
2021/01/11 07:56:05;;;;;;;124.57;53.92;;;;;;;;;;5034879;28;20030;-64
2021/01/11 07:58:32;;;;;;;127.97;53.72;;;;;;;;;;5035849;28;20402;-65
2021/01/11 08:01:04;;;;;;;134.13;53.75;;;;;;;;;;5035320;28;20447;-64
2021/01/11 08:03:30;;;;;;;142.18;54.78;;;;;;;;;;5035608;28;20127;-64
2021/01/11 08:06:04;;;;;;;136.85;54.55;;;;;;;;;;5017934;28;20111;-64
2021/01/11 08:08:33;;;;;;;123.93;54.80;;;;;;;;;;5035739;28;20046;-65
2021/01/11 08:11:06;;;;;;;137.63;54.92;;;;;;;;;;5035622;28;20052;-65
2021/01/11 08:13:32;;;;;;;126.68;56.60;;;;;;;;;;5035681;28;20130;-65
2021/01/11 08:16:11;;;;;;;126.53;57.30;;;;;;;;;;5035152;28;20128;-66
2021/01/11 08:18:38;;;;;;;134.38;56.50;;;;;;;;;;5035013;28;20041;-65
2021/01/11 08:21:07;;;;;;;134.40;56.90;;;;;;;;;;5035428;28;20037;-65
2021/01/11 08:23:34;;;;;;;119.18;52.60;;;;;;;;;;5035280;28;20482;-64
2021/01/11 08:26:00;;;;;;;125.10;54.08;;;;;;;;;;5033189;28;20037;-65
2021/01/11 08:28:28;;;;;;;135.40;56.47;;;;;;;;;;5007992;28;20041;-65
2021/01/11 08:30:54;;;;;;;129.75;57.90;;;;;;;;;;5021145;28;20062;-64
2021/01/11 08:33:20;;;;;;;146.95;59.33;;;;;;;;;;5007163;28;20495;-64
2021/01/11 08:35:46;;;;;;;136.63;55.47;;;;;;;;;;5025724;28;20097;-65
2021/01/11 08:38:12;;;;;;;126.57;57.03;;;;;;;;;;5025394;28;20037;-65
2021/01/11 08:40:41;;;;;;;139.55;58.10;;;;;;;;;;5024792;28;20045;-65
2021/01/11 08:43:19;;;;;;;128.60;57.03;;;;;;;;;;5014962;28;20038;-64
2021/01/11 08:45:46;;;;;;;129.32;57.92;;;;;;;;;;5015109;28;20130;-65
2021/01/11 08:48:15;;;;;;;130.35;54.75;;;;;;;;;;5025571;28;20171;-64
2021/01/11 08:50:57;;;;;;;142.45;62.55;;;;;;;;;;5034829;28;20171;-64
2021/01/11 08:53:26;;;;;;;139.18;59.28;;;;;;;;;;5034904;28;20045;-64
2021/01/11 08:56:00;;;;;;;142.13;60.20;;;;;;;;;;5034723;28;20050;-65
2021/01/11 08:58:27;;;;;;;144.45;59.38;;;;;;;;;;5034602;28;20041;-65
2021/01/11 09:01:07;;;;;;;132.13;58.10;;;;;;;;;;5034508;28;20040;-64
2021/01/11 09:03:43;;;;;;;111.22;56.50;;;;;;;;;;5034635;28;20129;-64
2021/01/11 09:06:10;;;;;;;127.22;58.90;;;;;;;;;;5033644;28;20618;-64
2021/01/11 09:08:36;;;;;;;133.02;61.65;;;;;;;;;;5034092;28;20050;-64
2021/01/11 09:11:09;;;;;;;116.82;56.58;;;;;;;;;;5034400;28;20437;-66
2021/01/11 09:13:35;;;;;;;116.45;59.85;;;;;;;;;;5034785;28;20068;-66
2021/01/11 09:16:11;;;;;;;129.63;59.55;;;;;;;;;;5034719;28;20121;-65
2021/01/11 09:18:37;;;;;;;118.57;61.10;;;;;;;;;;5034443;28;20041;-65
2021/01/11 09:21:04;;;;;;;116.35;58.35;;;;;;;;;;5034459;28;20510;-66
2021/01/11 09:23:30;;;;;;;115.30;60.00;;;;;;;;;;5034637;28;20050;-65
2021/01/11 09:25:56;;;;;;;103.57;53.45;;;;;;;;;;5034674;28;20065;-65
2021/01/11 09:28:22;;;;;;;96.68;51.65;;;;;;;;;;5033498;28;20048;-64
2021/01/11 09:30:50;;;;;;;95.30;52.50;;;;;;;;;;5034103;28;20045;-65
2021/01/11 09:33:17;;;;;;;98.10;54.67;;;;;;;;;;5034050;28;20041;-65
2021/01/11 09:35:43;;;;;;;98.22;53.03;;;;;;;;;;5033905;28;20091;-65
2021/01/11 09:38:09;;;;;;;88.55;50.45;;;;;;;;;;5033890;28;20049;-65
2021/01/11 09:40:35;;;;;;;92.72;53.42;;;;;;;;;;5033878;28;20132;-65
2021/01/11 09:43:01;;;;;;;88.03;52.28;;;;;;;;;;5033667;28;20099;-65
2021/01/11 09:45:27;;;;;;;87.38;51.83;;;;;;;;;;5033563;28;20045;-65
2021/01/11 09:47:53;;;;;;;88.97;51.17;;;;;;;;;;5033609;28;20037;-65
2021/01/11 09:50:19;;;;;;;82.85;50.30;;;;;;;;;;5033543;28;20029;-65
2021/01/11 09:52:46;;;;;;;86.75;51.17;;;;;;;;;;5033592;28;20052;-65
2021/01/11 09:55:12;;;;;;;91.55;53.00;;;;;;;;;;5033774;28;20050;-65
2021/01/11 09:57:39;;;;;;;84.72;50.20;;;;;;;;;;5033106;28;20037;-65
2021/01/11 10:00:07;;;;;;;87.82;49.20;;;;;;;;;;5033581;28;20045;-65
2021/01/11 10:02:33;;;;;;;76.45;47.38;;;;;;;;;;5033264;28;20041;-64
2021/01/11 10:04:59;;;;;;;83.25;49.30;;;;;;;;;;5033326;28;20849;-65
2021/01/11 10:07:25;;;;;;;78.47;47.17;;;;;;;;;;5033019;28;20496;-64
2021/01/11 10:09:51;;;;;;;83.75;51.35;;;;;;;;;;5033342;28;20430;-65
2021/01/11 10:12:17;;;;;;;69.80;46.03;;;;;;;;;;5033171;28;20042;-65
2021/01/11 10:14:43;;;;;;;75.03;47.40;;;;;;;;;;5015626;28;20068;-65
2021/01/11 10:17:09;;;;;;;77.95;47.75;;;;;;;;;;5032855;28;20041;-65
2021/01/11 10:19:36;;;;;;;75.78;48.22;;;;;;;;;;5014179;28;20100;-65
2021/01/11 10:22:03;;;;;;;76.20;47.25;;;;;;;;;;4996771;28;20046;-65
2021/01/11 10:24:29;;;;;;;72.07;44.25;;;;;;;;;;4993580;28;20042;-65
2021/01/11 10:26:55;;;;;;;76.90;46.25;;;;;;;;;;4981169;28;20536;-65
2021/01/11 10:29:22;;;;;;;68.05;44.80;;;;;;;;;;5000072;28;68424;-65
2021/01/11 10:31:48;;;;;;;63.63;41.33;;;;;;;;;;5027306;28;20515;-65
2021/01/11 10:34:16;;;;;;;61.13;40.63;;;;;;;;;;5032569;28;20119;-65
2021/01/11 10:36:43;;;;;;;63.63;40.60;;;;;;;;;;5019502;28;20046;-65
2021/01/11 10:39:09;;;;;;;56.95;40.47;;;;;;;;;;5013118;28;20046;-65
2021/01/11 10:41:35;;;;;;;59.38;41.10;;;;;;;;;;5013089;28;20046;-65
2021/01/11 10:44:01;;;;;;;62.05;39.47;;;;;;;;;;5012785;28;20053;-65
2021/01/11 10:46:27;;;;;;;59.28;40.47;;;;;;;;;;5013384;28;20038;-65
2021/01/11 10:48:53;;;;;;;58.63;38.30;;;;;;;;;;5012594;28;20041;-65
2021/01/11 10:51:22;;;;;;;54.38;37.42;;;;;;;;;;5015871;28;20044;-65
2021/01/11 10:53:48;;;;;;;54.88;38.58;;;;;;;;;;5012008;28;20038;-65
2021/01/11 10:56:14;;;;;;;52.72;37.83;;;;;;;;;;5012055;28;20038;-65
2021/01/11 10:58:40;;;;;;;52.90;35.92;;;;;;;;;;5012003;28;20416;-65
2021/01/11 11:01:07;;;;;;;50.15;36.05;;;;;;;;;;5012142;28;20045;-65
2021/01/11 11:03:33;;;;;;;61.92;39.28;;;;;;;;;;5012045;28;20069;-65
2021/01/11 11:05:59;;;;;;;55.67;37.45;;;;;;;;;;5011867;28;20048;-65
2021/01/11 11:08:25;;;;;;;52.47;37.10;;;;;;;;;;5012076;28;20141;-65
2021/01/11 11:10:51;;;;;;;53.85;38.25;;;;;;;;;;5012638;28;20040;-66
2021/01/11 11:13:18;;;;;;;47.30;34.85;;;;;;;;;;5011875;28;20144;-65
2021/01/11 11:15:44;;;;;;;54.58;37.00;;;;;;;;;;5012218;28;20030;-65
2021/01/11 11:18:11;;;;;;;46.10;32.83;;;;;;;;;;5010877;28;20042;-65
2021/01/11 11:20:37;;;;;;;48.35;33.75;;;;;;;;;;5010923;28;20042;-64
2021/01/11 11:23:03;;;;;;;43.00;31.58;;;;;;;;;;5005390;28;20116;-65
2021/01/11 11:25:29;;;;;;;47.35;33.20;;;;;;;;;;5010578;28;20046;-65
2021/01/11 11:27:55;;;;;;;45.35;32.13;;;;;;;;;;5011538;28;20034;-65
2021/01/11 11:30:22;;;;;;;41.58;31.45;;;;;;;;;;5011457;28;20095;-65
2021/01/11 11:32:48;;;;;;;38.85;29.52;;;;;;;;;;5011365;28;20042;-65
2021/01/11 11:35:15;;;;;;;41.17;29.40;;;;;;;;;;5014179;28;20030;-65
2021/01/11 11:37:41;;;;;;;42.40;29.67;;;;;;;;;;5009046;28;20509;-66
2021/01/11 11:40:08;;;;;;;40.22;29.52;;;;;;;;;;5012221;28;20038;-65
2021/01/11 11:42:34;;;;;;;37.88;27.85;;;;;;;;;;5011742;28;20064;-66
2021/01/11 11:45:00;;;;;;;37.72;27.58;;;;;;;;;;5012725;28;20095;-65
2021/01/11 11:47:26;;;;;;;41.25;28.85;;;;;;;;;;5011763;28;20042;-65
2021/01/11 11:49:52;;;;;;;37.67;28.05;;;;;;;;;;5011862;28;20104;-65
2021/01/11 11:52:18;;;;;;;35.97;27.52;;;;;;;;;;5011850;28;20034;-65
2021/01/11 11:54:44;;;;;;;37.78;28.75;;;;;;;;;;5012356;28;20050;-66
2021/01/11 11:57:11;;;;;;;36.13;26.92;;;;;;;;;;5022830;28;20044;-65
2021/01/11 11:59:37;;;;;;;36.67;27.00;;;;;;;;;;5012158;28;20069;-65
2021/01/11 12:02:03;;;;;;;41.17;27.60;;;;;;;;;;5012018;28;20045;-65
2021/01/11 12:04:29;;;;;;;33.15;26.20;;;;;;;;;;5011904;28;20137;-65
2021/01/11 12:06:56;;;;;;;37.78;27.85;;;;;;;;;;5024160;28;20053;-65
2021/01/11 12:09:22;;;;;;;41.83;27.45;;;;;;;;;;5031300;28;20041;-66
2021/01/11 12:11:52;;;;;;;36.35;27.38;;;;;;;;;;5031206;28;20068;-65
2021/01/11 12:14:19;;;;;;;37.45;28.02;;;;;;;;;;5031906;28;20416;-65
2021/01/11 12:16:47;;;;;;;32.88;25.70;;;;;;;;;;5026248;28;20053;-65
2021/01/11 12:19:13;;;;;;;33.95;25.67;;;;;;;;;;5031731;28;20045;-65
2021/01/11 12:21:39;;;;;;;36.33;24.88;;;;;;;;;;5030252;28;20041;-65
2021/01/11 12:24:06;;;;;;;36.67;25.55;;;;;;;;;;5005289;28;20034;-65
2021/01/11 12:27:04;;;;;;;33.72;24.20;;;;;;;;;;4999757;28;20045;-64
2021/01/11 12:29:31;;;;;;;33.60;23.73;;;;;;;;;;4979833;28;20419;-65
2021/01/11 12:31:57;;;;;;;31.30;23.23;;;;;;;;;;5011225;28;20103;-65
2021/01/11 12:34:23;;;;;;;33.00;24.27;;;;;;;;;;5011219;28;20074;-65
2021/01/11 12:36:49;;;;;;;30.98;23.65;;;;;;;;;;5013510;28;20030;-65
2021/01/11 12:39:15;;;;;;;28.10;22.10;;;;;;;;;;5011121;28;20056;-65
2021/01/11 12:41:41;;;;;;;27.35;22.20;;;;;;;;;;5012110;28;20053;-65
2021/01/11 12:44:08;;;;;;;25.17;21.00;;;;;;;;;;5014518;28;20038;-65
2021/01/11 12:46:34;;;;;;;24.88;19.70;;;;;;;;;;5015029;28;20096;-64
2021/01/11 12:49:00;;;;;;;24.38;20.33;;;;;;;;;;5014516;28;20041;-65
2021/01/11 12:51:26;;;;;;;23.50;19.55;;;;;;;;;;5014214;28;20571;-65
2021/01/11 12:53:53;;;;;;;25.73;18.80;;;;;;;;;;5014603;28;20073;-64
2021/01/11 12:56:25;;;;;;;25.85;20.15;;;;;;;;;;4999479;28;20048;-64
2021/01/11 12:58:52;;;;;;;23.95;20.27;;;;;;;;;;5091701;22;20071;-62
2021/01/11 13:01:22;;;;;;;22.65;18.75;;;;;;;;;;5054354;28;20477;-62
2021/01/11 13:03:48;;;;;;;19.98;17.85;;;;;;;;;;5054417;28;20064;-63
2021/01/11 13:06:47;;;;;;;22.17;19.30;;;;;;;;;;5053204;28;20041;-62
2021/01/11 13:09:13;;;;;;;23.95;18.27;;;;;;;;;;5000730;28;20042;-63
2021/01/11 13:11:41;;;;;;;20.92;17.33;;;;;;;;;;5014313;28;20056;-63
2021/01/11 13:14:07;;;;;;;19.88;17.10;;;;;;;;;;5014589;28;20089;-63
2021/01/11 13:16:34;;;;;;;21.10;16.98;;;;;;;;;;5014380;28;20050;-63
2021/01/11 13:19:01;;;;;;;20.00;16.80;;;;;;;;;;5031989;28;20407;-62
2021/01/11 13:21:28;;;;;;;21.42;16.50;;;;;;;;;;5034195;28;20049;-63
2021/01/11 13:23:54;;;;;;;20.98;17.60;;;;;;;;;;5034164;28;20046;-62
2021/01/11 13:26:23;;;;;;;17.63;14.80;;;;;;;;;;5034046;28;20050;-63
2021/01/11 13:28:49;;;;;;;18.02;14.88;;;;;;;;;;5019420;28;20046;-63
2021/01/11 13:31:16;;;;;;;18.50;14.25;;;;;;;;;;5014127;28;20389;-63
2021/01/11 13:33:42;;;;;;;15.65;13.15;;;;;;;;;;5014372;28;20046;-63
2021/01/11 13:36:08;;;;;;;18.98;13.23;;;;;;;;;;5018853;28;20424;-63
2021/01/11 13:38:34;;;;;;;20.77;14.23;;;;;;;;;;5027730;28;20042;-63
2021/01/11 13:41:00;;;;;;;15.60;11.95;;;;;;;;;;5033613;28;20037;-63
2021/01/11 13:43:26;;;;;;;23.95;12.77;;;;;;;;;;5033634;28;20037;-63
2021/01/11 13:45:52;;;;;;;13.40;10.02;;;;;;;;;;5033706;28;20110;-63
2021/01/11 13:48:19;;;;;;;14.48;10.93;;;;;;;;;;5029365;28;20041;-63
2021/01/11 13:50:45;;;;;;;12.80;9.25;;;;;;;;;;5022131;28;20053;-63
2021/01/11 13:53:11;;;;;;;13.55;10.65;;;;;;;;;;5033402;28;20144;-63
2021/01/11 13:55:37;;;;;;;14.30;10.48;;;;;;;;;;5033691;28;20128;-63
2021/01/11 13:58:03;;;;;;;16.23;12.32;;;;;;;;;;5033243;28;20443;-63
2021/01/11 14:00:30;;;;;;;15.40;12.27;;;;;;;;;;5033170;28;20120;-63
2021/01/11 14:02:56;;;;;;;16.13;11.85;;;;;;;;;;5033494;28;20087;-63
2021/01/11 14:05:22;;;;;;;18.17;13.02;;;;;;;;;;5033401;28;20042;-63
2021/01/11 14:07:48;;;;;;;16.92;12.77;;;;;;;;;;5033254;28;20048;-63
2021/01/11 14:10:15;;;;;;;15.85;12.68;;;;;;;;;;5018624;28;20046;-63
2021/01/11 14:12:41;;;;;;;15.50;12.52;;;;;;;;;;5013338;28;20042;-63
2021/01/11 14:15:07;;;;;;;15.50;11.95;;;;;;;;;;5013502;28;20489;-63
2021/01/11 14:17:34;;;;;;;13.90;12.40;;;;;;;;;;5013264;28;20046;-63